x

San Francisco - 18nm West Of San Francisco, Ca (46026) Wave Buoy

8:50pm - Sun 14th Sep 2014 All times are PDT. -7 hours from GMT.

  • Sig Wave height 2.3ft
  • Swell Direction
  • Peak Period 11s
  • Average Period 5s
  • Wind
    11mph, 13mph gusts
  • Sea Temp 64°f
  • Air Temp 61°f
  • Sea Pressure 1010.7mb
  • San Francisco - 18nm West Of San Francisco, Ca
  • San Francisco - 18nm West Of San Francisco, Ca

More Historic Weather Station data

Upgrade to MSW Pro to gain access to the past 30 days of data for over 8000 Wavebouys and Weather Stations around the globe.

Join Pro

Comparision Forecast

View Surf forecast
   
Sun 09/14 8:50pm 2.5ft 11s 5s 11 13 mph 1010.7mb 64f 61f
7:50pm 2.5ft 11s 5s 13 16 mph 1010.3mb 64f 61f
6:50pm 2.5ft 10s 5s 11 13 mph 1010.3mb 64f 61f
5:50pm 2ft 11s 5s 16
mph
1010.2mb 64f 61f
4:50pm 2ft 13s 5s 11 13 mph 1010.6mb 64f 61f
3:50pm 2ft 13s 6s 11 13 mph 1011mb 64f 61f
2:50pm 2ft 7s 7s 9 11 mph 1011.6mb 64f 60f
1:50pm 2ft 10s 7s 9 11 mph 1011.9mb 64f 60f
12:50pm 2ft 11s 7s 9
mph
1012.4mb 63f 60f
11:50am 2ft 12s 6s 9 11 mph 1012.7mb 63f 60f
10:50am 1.6ft 13s 6s 4 7 mph 1012.3mb 63f 59f
9:50am 2ft 11s 6s 4 7 mph 1011.8mb 63f 60f
8:50am 2.5ft 14s 6s 2 4 mph 1011.6mb 63f 60f
7:50am 2.5ft 13s 6s 2 4 mph 1011.5mb 63f 59f
6:50am 2.5ft 11s 6s 2 4 mph 1011.2mb 63f 59f
5:50am 2.5ft 14s 6s 4 7 mph 1010.9mb 63f 59f
4:50am 2.5ft 14s 6s 4 7 mph 1010.8mb 63f 60f
3:50am 2.5ft 14s 6s 7 9 mph 1010.8mb 63f 60f
2:50am 2.5ft 11s 7s 4
mph
1011mb 63f 60f
1:50am 2.5ft 12s 7s 4 7 mph 1010.8mb 63f 60f
12:50am 2.5ft 11s 6s 4 7 mph 1010.6mb 63f 59f
Sat 09/13 11:50pm 2.5ft 12s 6s 4 7 mph 1010.7mb 63f 59f
10:50pm 2.5ft 14s 7s 4 9 mph 1010.7mb 63f 60f
9:50pm 2.5ft 14s 6s 7 9 mph 1010.5mb 63f 60f
8:50pm 2.5ft 13s 6s 7 9 mph 1010.2mb 63f 60f
7:50pm 2.5ft 14s 6s 9 11 mph 1009.6mb 63f 60f
6:50pm 2.5ft 11s 5s 11 13 mph 1009.7mb 63f 60f
5:50pm 2.5ft 10s 6s 11 13 mph 1010.2mb 64f 60f
4:50pm 2.5ft 14s 6s 11 13 mph 1010.2mb 64f 61f
3:50pm 2.5ft 14s 7s 11 13 mph 1010.5mb 64f 61f
1:50pm 2.5ft 14s 7s 7 9 mph 1011.1mb 64f 60f
12:50pm 2.5ft 13s 7s 4 7 mph 1011.3mb 64f 60f
11:50am 2.5ft 10s 7s 4 7 mph 1011.7mb 63f 60f
10:50am 3ft 12s 7s 2 4 mph 1011.8mb 63f 60f
9:50am 2.5ft 11s 7s  -  2 mph 1011.9mb 62f 60f
8:50am 2.5ft 13s 7s 2
mph
1011.9mb 62f 59f
7:50am 3ft 11s 7s  -  2 mph 1011.7mb 62f 59f
6:50am 3ft 14s 7s 4 7 mph 1011.5mb 62f 59f
5:50am 3.5ft 14s 7s 2 4 mph 1010.9mb 62f 59f
4:50am 3ft 14s 7s 4 7 mph 1010.6mb 62f 59f
3:50am 3ft 11s 7s  -  2 mph 1011mb 62f 58f
2:50am 3ft 11s 7s 2 4 mph 1011.3mb 62f 58f
1:50am 3ft 11s 7s 4 9 mph 1011.2mb 62f 58f
12:50am 3ft 11s 6s 9 11 mph 1011.3mb 62f 59f
Fri 09/12 11:50pm 2.5ft 10s 6s 7
mph
1011.1mb 62f 58f
10:50pm 3ft 11s 6s 7 11 mph 1011.1mb 62f 59f
9:50pm 3ft 14s 6s 9 11 mph 1010.8mb 62f 59f
8:50pm 3ft 14s 6s 11 13 mph 1010.7mb 62f 59f
7:50pm 3ft 11s 6s 13 16 mph 1010.5mb 63f 60f
6:50pm 3ft 15s 6s 13 16 mph 1010.5mb 63f 60f
5:50pm 3.5ft 15s 6s 11 13 mph 1010.8mb 63f 61f
4:50pm 3.5ft 14s 7s 11 13 mph 1011.1mb 63f 61f
3:50pm 3ft 15s 7s 11 13 mph 1011.3mb 63f 60f
2:50pm 3.5ft 14s 8s 11
mph
1012.1mb 63f 59f
1:50pm 3.5ft 12s 8s 7 9 mph 1012.4mb 62f 59f
12:50pm 3ft 11s 8s 7 11 mph 1013mb 62f 58f
11:50am 3.5ft 12s 8s 4 7 mph 1013.4mb 62f 58f
10:50am 3.5ft 12s 8s 4 9 mph 1013.6mb 61f 58f
9:50am 3.5ft 12s 8s 2 7 mph 1013.5mb 61f 58f
8:50am 3ft 12s 7s 7 9 mph 1013.1mb 61f 57f
7:50am 3.5ft 15s 8s 4 9 mph 1013mb 61f 57f
6:50am 4ft 12s 8s 7 11 mph 1012.5mb 61f 57f
5:50am 3.5ft 8s 8s 2 4 mph 1012.3mb 62f 57f
4:50am 4ft 13s 8s 4 7 mph 1012.3mb 62f 57f
3:50am 4ft 11s 8s 4 7 mph 1012.4mb 62f 57f
2:50am 3.5ft 12s 8s 7 9 mph 1012.4mb 62f 57f
1:50am 3.5ft 13s 8s 4 9 mph 1012.2mb 62f 57f
12:50am 3.5ft 12s 8s 2 4 mph 1011.9mb 62f 57f
Thu 09/11 11:50pm 3.5ft 12s 8s 2 7 mph 1012mb 62f 58f
10:50pm 3.5ft 12s 8s 7 9 mph 1012mb 62f 58f
9:50pm 3.5ft 12s 7s 4 7 mph 1012.1mb 62f 58f
8:50pm 3.5ft 13s 7s 4 9 mph 1011.8mb 63f 58f
7:50pm 3.5ft 13s 8s 9 11 mph 1011.4mb 63f 58f
6:50pm 3.5ft 13s 7s 4 9 mph 1011.7mb 63f 58f
5:50pm 3.5ft 13s 7s 7 11 mph 1011.8mb 63f 58f
4:50pm 4ft 13s 8s 9 11 mph 1011.9mb 63f 59f
3:50pm 4ft 13s 7s 7 9 mph 1012mb 63f 59f
2:50pm 4ft 13s 8s 4 9 mph 1012.4mb 63f 59f
1:50pm 4.5ft 13s 8s 7 9 mph 1012.8mb 63f 59f
12:50pm 4.5ft 13s 9s 4 7 mph 1013.1mb 63f 58f
11:50am 4ft 13s 7s 2
mph
1013.3mb 62f 59f
10:50am 4ft 14s 7s 2 4 mph 1013.6mb 62f 58f
9:50am 4ft 14s 8s 2 7 mph 1013.5mb 62f 58f
8:50am 4ft 14s 8s 2 4 mph 1013.5mb 62f 58f
7:50am 3.5ft 13s 7s 4 7 mph 1013.2mb 62f 58f
6:50am 4.5ft 13s 8s 4
mph
1012.7mb 62f 58f
5:50am 4ft 14s 8s  -  2 mph 1012.4mb 62f 58f